FYKT/KMP METAR and TAF weather

Enter ICAO airport designator
Station Type Date Time Source
FYKT METAR 2021/09/28 04:00 UTC NOAA

FYKT 280400Z /////KT CAVOK 09/07 Q1018


Station Type Date Time Source
FYKT Decoded METAR 2021/09/28 04:00 UTC NOAA

Keetmanshoop, Namibia (FYKT) 26-32S 018-07E 1100M
Sep 28, 2021 - 12:00 AM EDT / 2021.09.28 0400 UTC
Visibility: greater than 7 mile(s):0
Temperature: 48 F (9 C)
Dew Point: 44 F (7 C)
Relative Humidity: 87%
Pressure (altimeter): 30.06 in. Hg (1018 hPa)
ob: FYKT 280400Z /////KT CAVOK 09/07 Q1018
cycle: 4

Station Type Date Time Source
FYKT TAF 2021/09/28 06:16 UTC NOAA

TAF FYKT 280400Z 2806/2906 20003KT CAVOK
BECMG 2810/2812 21016KT

Example: see airport list